createdAt,value
2023-03-01T00:01:43.541Z,1.46
2023-03-01T00:06:35.290Z,1.50
2023-03-01T00:11:30.362Z,1.60
2023-03-01T00:16:29.504Z,1.62
2023-03-01T00:21:23.074Z,1.66
2023-03-01T00:26:16.159Z,1.64
2023-03-01T00:31:15.812Z,1.64
2023-03-01T00:36:08.250Z,1.74
2023-03-01T00:41:09.740Z,1.68
2023-03-01T00:46:13.472Z,1.67
2023-03-01T00:51:21.422Z,1.70
2023-03-01T00:56:15.699Z,1.74
2023-03-01T01:01:18.651Z,1.71
2023-03-01T01:06:19.789Z,1.73
2023-03-01T01:11:12.901Z,1.77
2023-03-01T01:16:05.122Z,1.73
2023-03-01T01:20:56.858Z,1.74
2023-03-01T01:25:48.544Z,1.73
2023-03-01T01:30:40.208Z,1.77
2023-03-01T01:35:31.898Z,1.81
2023-03-01T01:40:23.575Z,1.76
2023-03-01T01:45:35.698Z,1.77
2023-03-01T01:50:28.476Z,1.87
2023-03-01T01:55:28.369Z,1.77
2023-03-01T02:00:27.881Z,1.80
2023-03-01T02:05:26.989Z,1.82
2023-03-01T02:10:19.002Z,1.76
2023-03-01T02:15:11.319Z,1.79
2023-03-01T02:20:17.564Z,1.74
2023-03-01T02:25:19.573Z,1.76
2023-03-01T02:30:13.162Z,1.77
2023-03-01T02:35:07.372Z,1.87
2023-03-01T02:40:06.262Z,1.83
2023-03-01T02:44:58.000Z,1.85
2023-03-01T02:49:49.702Z,1.84
2023-03-01T02:55:02.913Z,1.85
2023-03-01T03:05:12.627Z,1.77
2023-03-01T03:10:08.523Z,1.78
2023-03-01T03:20:11.911Z,1.84
2023-03-01T03:25:03.855Z,1.82
2023-03-01T03:29:55.562Z,1.93
2023-03-01T03:34:47.244Z,1.77
2023-03-01T03:39:38.912Z,1.74
2023-03-01T03:44:30.627Z,1.80
2023-03-01T03:49:22.398Z,1.79
2023-03-01T03:54:14.338Z,1.70
2023-03-01T03:59:06.784Z,1.70
2023-03-01T04:04:04.879Z,1.70
2023-03-01T04:08:59.206Z,1.68
2023-03-01T04:13:53.747Z,1.60
2023-03-01T04:18:46.442Z,1.74
2023-03-01T04:23:38.883Z,1.65
2023-03-01T04:28:46.632Z,1.60
2023-03-01T04:33:38.298Z,1.66
2023-03-01T04:38:30.039Z,1.61
2023-03-01T04:43:21.712Z,1.56
2023-03-01T05:08:43.734Z,1.52
2023-03-01T05:29:02.819Z,1.46
2023-03-01T06:35:20.269Z,1.58
2023-03-01T06:40:18.486Z,1.53
2023-03-01T07:10:45.749Z,1.66
2023-03-01T07:41:37.647Z,1.74
2023-03-01T07:51:54.840Z,1.71
2023-03-01T08:27:28.970Z,1.87
2023-03-01T08:37:31.426Z,1.86
2023-03-01T13:11:05.226Z,2.60
2023-03-01T13:36:41.166Z,2.91
2023-03-01T13:41:49.310Z,2.88
2023-03-01T14:23:56.337Z,3.11
2023-03-01T15:05:50.303Z,2.98
2023-03-01T16:39:23.463Z,2.96
2023-03-01T16:44:21.052Z,2.95
2023-03-01T17:24:56.474Z,3.01
2023-03-01T17:34:54.773Z,3.02
2023-03-01T18:10:34.760Z,3.16
2023-03-01T18:35:54.483Z,3.26
2023-03-01T18:46:14.809Z,3.13
2023-03-01T18:51:18.550Z,3.25
2023-03-01T19:11:56.186Z,3.34
2023-03-01T19:16:49.809Z,3.30
2023-03-01T19:26:50.630Z,3.32
2023-03-01T19:31:43.000Z,3.40
2023-03-01T19:36:35.859Z,3.34
2023-03-01T19:56:48.589Z,3.48
2023-03-01T20:01:45.475Z,3.58
2023-03-01T20:06:39.176Z,3.42
2023-03-01T20:16:43.818Z,3.50
2023-03-01T20:21:41.125Z,3.39
2023-03-01T20:26:35.343Z,3.45
2023-03-01T20:31:30.328Z,3.49
2023-03-01T20:41:29.745Z,3.57
2023-03-01T20:46:25.170Z,3.57
2023-03-01T20:51:18.704Z,3.62
2023-03-01T20:56:22.308Z,3.64
2023-03-01T21:01:22.047Z,3.65
2023-03-01T21:11:22.088Z,3.69
2023-03-01T21:21:27.462Z,3.60
2023-03-01T21:26:27.249Z,3.61
2023-03-01T21:31:27.856Z,3.55
2023-03-01T21:36:22.280Z,3.56
2023-03-01T21:41:19.566Z,3.61
2023-03-01T21:46:16.921Z,3.63
2023-03-01T21:51:11.566Z,3.64
2023-03-01T21:56:10.866Z,3.74
2023-03-01T22:01:13.741Z,3.72
2023-03-01T22:06:07.001Z,3.59
2023-03-01T22:11:03.022Z,3.57
2023-03-01T22:15:55.875Z,3.54
2023-03-01T22:20:48.220Z,3.57
2023-03-01T22:25:43.250Z,3.69
2023-03-01T22:30:36.170Z,3.55
2023-03-01T22:35:28.228Z,3.50
2023-03-01T22:40:20.353Z,3.49
2023-03-01T22:45:12.866Z,3.54
2023-03-01T22:50:09.054Z,3.49
2023-03-01T22:55:09.477Z,3.53
2023-03-01T23:00:02.407Z,3.60
2023-03-01T23:04:54.728Z,3.61
2023-03-01T23:09:48.870Z,3.59
2023-03-01T23:14:46.844Z,3.58
2023-03-01T23:19:39.194Z,3.53
2023-03-01T23:24:33.842Z,3.56
2023-03-01T23:29:27.474Z,3.51
2023-03-01T23:34:21.491Z,3.52
2023-03-01T23:39:16.463Z,3.58
2023-03-01T23:44:08.852Z,3.55
2023-03-01T23:49:01.573Z,3.52
2023-03-01T23:54:02.299Z,3.57
2023-03-01T23:59:04.948Z,3.54
